Terminal Aerodrome Forecast
Issued by NWS

Home | Current Version | Previous Version | Graphics & Text | Print | Product List | Glossary On
Versions: 1 2 3 4 5 6 7 8 9 10 11 12 13 14 15 16
858
FTUS43 KFGF 131720
TAFBJI
TAF
KBJI 131720Z 1318/1418 16006KT P6SM SKC
     FM132000 16009KT P6SM BKN050
      TEMPO 1320/1323 -SN
     FM132300 18009KT P6SM SCT070
     FM140500 21008KT P6SM SCT200=

USA.gov is the U.S. government's official web portal to all federal, state and local government web resources and services.